createdAt,value
2022-12-07T00:29:46.138Z,9.20
2022-12-07T00:30:48.637Z,9.30
2022-12-07T00:31:51.943Z,9.30
2022-12-07T00:32:55.280Z,9.50
2022-12-07T00:33:57.884Z,7.90
2022-12-07T00:34:59.992Z,7.30
2022-12-07T00:36:03.800Z,9.50
2022-12-07T00:37:07.029Z,9.10
2022-12-07T00:38:11.248Z,7.50
2022-12-07T00:39:14.212Z,8.40
2022-12-07T00:40:16.487Z,9.30
2022-12-07T00:41:20.543Z,8.80
2022-12-07T00:42:23.158Z,8.40
2022-12-07T00:43:25.809Z,9.90
2022-12-07T00:44:28.173Z,8.90
2022-12-07T00:45:30.297Z,9.40
2022-12-07T00:46:33.370Z,8.90
2022-12-07T00:47:35.630Z,9.30
2022-12-07T00:48:38.969Z,8.20
2022-12-07T00:49:42.186Z,7.60
2022-12-07T00:50:45.098Z,8.80
2022-12-07T00:51:48.879Z,9.00
2022-12-07T00:52:51.047Z,8.50
2022-12-07T00:53:53.316Z,8.40
2022-12-07T00:54:55.952Z,8.10
2022-12-07T00:55:58.056Z,7.80
2022-12-07T00:59:06.475Z,8.80
2022-12-07T01:00:12.162Z,8.20
2022-12-07T01:01:14.475Z,8.10
2022-12-07T01:02:16.520Z,8.80
2022-12-07T01:03:18.792Z,8.60
2022-12-07T01:04:21.477Z,8.18
2022-12-07T01:05:23.715Z,7.40
2022-12-07T01:06:26.385Z,7.20
2022-12-07T01:07:28.603Z,8.00
2022-12-07T01:08:31.711Z,7.80
2022-12-07T01:09:33.908Z,8.70
2022-12-07T01:10:36.623Z,8.10
2022-12-07T01:11:39.838Z,5.80
2022-12-07T01:12:42.293Z,6.80
2022-12-07T01:13:44.408Z,5.70
2022-12-07T01:14:46.779Z,7.50
2022-12-07T01:15:49.833Z,7.70
2022-12-07T01:16:52.092Z,8.60
2022-12-07T01:17:55.345Z,8.40
2022-12-07T01:18:57.813Z,7.20
2022-12-07T01:20:00.408Z,8.70
2022-12-07T01:25:27.297Z,7.50
2022-12-07T01:26:29.514Z,7.80
2022-12-07T01:27:32.500Z,7.10
2022-12-07T01:28:34.645Z,6.10
2022-12-07T01:29:37.485Z,7.40
2022-12-07T01:30:39.698Z,8.40
2022-12-07T01:31:42.312Z,6.90
2022-12-07T01:43:19.245Z,8.45
2022-12-07T01:44:23.995Z,7.80
2022-12-07T01:45:42.800Z,6.70
2022-12-07T01:46:53.687Z,6.90
2022-12-07T01:47:56.046Z,5.20
2022-12-07T01:48:58.139Z,5.50
2022-12-07T01:50:00.711Z,4.70
2022-12-07T01:51:05.842Z,6.91
2022-12-07T01:52:14.084Z,6.50
2022-12-07T01:53:16.246Z,6.00
2022-12-07T01:54:18.739Z,6.30
2022-12-07T01:55:20.888Z,5.90
2022-12-07T01:56:24.945Z,6.30
2022-12-07T01:57:27.370Z,6.00
2022-12-07T01:58:30.549Z,5.90
2022-12-07T01:59:34.568Z,6.00
2022-12-07T02:00:37.704Z,5.90
2022-12-07T02:01:40.576Z,5.50
2022-12-07T02:02:55.615Z,5.00
2022-12-07T02:03:57.932Z,6.50
2022-12-07T02:05:01.545Z,6.30
2022-12-07T02:06:04.821Z,5.70
2022-12-07T02:07:06.930Z,6.80
2022-12-07T02:08:09.754Z,6.30
2022-12-07T02:09:11.969Z,6.40
2022-12-07T06:12:37.137Z,16.00
2022-12-07T06:13:45.372Z,12.60
2022-12-07T06:14:43.841Z,13.20
2022-12-07T06:15:46.302Z,11.80
2022-12-07T06:16:48.989Z,13.27
2022-12-07T06:17:51.277Z,13.20
2022-12-07T06:18:53.407Z,13.40
2022-12-07T06:19:55.500Z,12.10
2022-12-07T07:02:11.370Z,9.30
2022-12-07T07:03:13.805Z,9.89
2022-12-07T07:04:16.374Z,9.00
2022-12-07T07:05:18.938Z,9.70
2022-12-07T07:06:21.284Z,10.27
2022-12-07T07:07:23.374Z,9.90
2022-12-07T07:08:28.756Z,9.00
2022-12-07T07:09:31.216Z,8.60
2022-12-07T07:10:33.332Z,9.50
2022-12-07T07:11:35.740Z,10.30
2022-12-07T07:12:38.352Z,9.50
2022-12-07T07:13:41.749Z,9.30
2022-12-07T07:14:45.204Z,10.30
2022-12-07T07:15:47.419Z,9.20
2022-12-07T07:16:50.137Z,8.00
2022-12-07T07:17:52.523Z,10.10
2022-12-07T07:18:55.622Z,9.40
2022-12-07T07:19:58.253Z,9.80
2022-12-07T07:21:00.364Z,11.30
2022-12-07T07:22:02.425Z,8.60
2022-12-07T07:23:04.709Z,9.70
2022-12-07T07:24:07.932Z,9.20
2022-12-07T07:25:10.076Z,8.91
2022-12-07T07:26:12.557Z,10.10
2022-12-07T07:27:14.725Z,9.20
2022-12-07T07:28:16.914Z,8.90
2022-12-07T07:29:20.163Z,10.00
2022-12-07T07:30:22.503Z,10.60
2022-12-07T07:31:24.653Z,9.50
2022-12-07T07:32:26.764Z,8.00
2022-12-07T07:33:28.865Z,9.40
2022-12-07T07:34:31.322Z,10.90
2022-12-07T07:35:34.022Z,9.40
2022-12-07T07:36:36.288Z,10.91
2022-12-07T07:37:38.429Z,10.80
2022-12-07T07:38:40.741Z,10.70
2022-12-07T07:39:42.754Z,9.10
2022-12-07T07:40:45.742Z,10.00
2022-12-07T07:41:47.926Z,10.10
2022-12-07T07:42:52.751Z,9.10
2022-12-07T07:44:01.628Z,11.09
2022-12-07T07:45:07.877Z,9.60
2022-12-07T07:46:10.313Z,10.70
2022-12-07T07:47:13.221Z,9.70
2022-12-07T07:48:15.482Z,9.55
2022-12-07T07:49:18.011Z,7.80
2022-12-07T07:50:21.363Z,10.90
2022-12-07T07:51:27.772Z,10.90
2022-12-07T07:52:31.873Z,11.20
2022-12-07T07:53:35.346Z,9.10
2022-12-07T07:54:37.485Z,9.30
2022-12-07T07:55:39.709Z,10.30
2022-12-07T07:56:41.908Z,7.70
2022-12-07T07:57:51.252Z,10.00
2022-12-07T07:58:53.496Z,10.00
2022-12-07T07:59:56.207Z,9.80
2022-12-07T08:01:07.108Z,8.60
2022-12-07T08:02:15.355Z,10.10
2022-12-07T08:03:17.684Z,10.00
2022-12-07T08:04:19.874Z,10.00
2022-12-07T08:05:22.207Z,10.40
2022-12-07T08:06:30.517Z,10.70
2022-12-07T08:07:29.555Z,10.40
2022-12-07T08:08:32.169Z,11.40
2022-12-07T08:09:34.748Z,10.60
2022-12-07T08:10:36.840Z,8.60
2022-12-07T08:11:40.004Z,10.80
2022-12-07T08:12:42.857Z,10.60
2022-12-07T08:13:47.834Z,9.91
2022-12-07T08:14:50.005Z,10.50
2022-12-07T08:15:53.284Z,11.40
2022-12-07T08:16:55.569Z,9.70
2022-12-07T08:17:58.143Z,11.50
2022-12-07T08:19:00.737Z,10.30
2022-12-07T08:20:05.904Z,9.20
2022-12-07T08:22:22.999Z,11.00
2022-12-07T08:23:32.463Z,10.90
2022-12-07T08:24:29.454Z,9.80
2022-12-07T08:25:31.746Z,10.70
2022-12-07T08:26:34.882Z,10.40
2022-12-07T08:27:38.317Z,10.70
2022-12-07T08:28:41.020Z,9.10
2022-12-07T08:29:43.084Z,11.00
2022-12-07T08:30:47.534Z,11.40
2022-12-07T08:31:50.376Z,10.70
2022-12-07T08:32:52.505Z,11.70
2022-12-07T08:33:55.830Z,12.10
2022-12-07T08:34:57.913Z,11.60
2022-12-07T08:36:06.906Z,13.00
2022-12-07T08:37:09.048Z,12.60
2022-12-07T08:38:11.579Z,11.80
2022-12-07T08:40:18.553Z,10.20
2022-12-07T08:41:20.720Z,11.45
2022-12-07T08:42:23.074Z,13.20
2022-12-07T08:43:25.954Z,13.90
2022-12-07T08:44:28.528Z,15.91
2022-12-07T08:45:30.632Z,18.10
2022-12-07T08:47:54.662Z,21.40
2022-12-07T08:49:00.552Z,23.00
2022-12-07T08:50:03.492Z,22.50
2022-12-07T08:51:06.564Z,26.30
2022-12-07T08:52:08.821Z,26.18
2022-12-07T08:53:10.853Z,26.33
2022-12-07T08:54:14.998Z,27.44
2022-12-07T08:55:17.142Z,29.20
2022-12-07T08:56:20.867Z,30.60
2022-12-07T08:57:25.064Z,29.90
2022-12-07T08:58:28.470Z,30.20
2022-12-07T08:59:30.609Z,30.00
2022-12-07T09:00:32.898Z,29.40
2022-12-07T09:01:37.132Z,29.60
2022-12-07T09:02:40.348Z,30.00
2022-12-07T09:03:42.494Z,31.30
2022-12-07T09:04:44.518Z,30.22
2022-12-07T09:05:46.561Z,30.56
2022-12-07T09:06:49.164Z,29.90
2022-12-07T09:07:52.116Z,29.80
2022-12-07T09:08:56.780Z,30.30
2022-12-07T09:09:59.058Z,29.50
2022-12-07T09:11:01.365Z,29.10
2022-12-07T09:12:04.801Z,28.60
2022-12-07T09:13:06.936Z,29.60
2022-12-07T09:14:09.472Z,29.00
2022-12-07T09:15:11.579Z,28.50
2022-12-07T09:16:14.029Z,27.40
2022-12-07T09:17:18.406Z,27.60
2022-12-07T09:18:20.521Z,27.50
2022-12-07T09:19:22.615Z,27.50
2022-12-07T09:20:28.128Z,27.90
2022-12-07T09:21:29.908Z,27.30
2022-12-07T09:22:34.464Z,24.91
2022-12-07T09:23:36.745Z,27.00
2022-12-07T09:24:39.348Z,24.20
2022-12-07T09:25:43.066Z,27.20
2022-12-07T09:26:47.964Z,25.80
2022-12-07T09:27:58.020Z,27.30
2022-12-07T09:29:00.148Z,26.20
2022-12-07T09:30:04.776Z,25.30
2022-12-07T09:31:23.481Z,26.50
2022-12-07T09:32:12.289Z,25.50
2022-12-07T09:33:14.592Z,23.90
2022-12-07T09:34:16.717Z,25.30
2022-12-07T09:35:18.970Z,23.00
2022-12-07T09:36:21.085Z,22.60
2022-12-07T09:37:24.611Z,24.90
2022-12-07T09:38:27.245Z,24.10
2022-12-07T09:39:29.616Z,25.50
2022-12-07T09:40:32.493Z,25.00
2022-12-07T09:41:38.480Z,24.00
2022-12-07T09:43:59.541Z,23.50
2022-12-07T09:45:01.877Z,23.70
2022-12-07T09:46:04.303Z,23.60
2022-12-07T09:47:08.172Z,21.80
2022-12-07T09:48:27.651Z,23.70
2022-12-07T09:49:31.523Z,20.20
2022-12-07T09:50:33.733Z,22.40
2022-12-07T09:51:36.269Z,18.60
2022-12-07T09:52:39.237Z,22.80
2022-12-07T09:53:41.732Z,21.30
2022-12-07T09:54:46.753Z,21.30
2022-12-07T09:55:49.918Z,22.60
2022-12-07T09:56:52.480Z,20.90
2022-12-07T09:57:55.132Z,20.30
2022-12-07T09:59:01.849Z,19.50
2022-12-07T10:00:07.229Z,20.40
2022-12-07T10:01:15.158Z,20.20
2022-12-07T10:02:28.055Z,20.40
2022-12-07T14:03:45.407Z,30.30
2022-12-07T14:04:49.123Z,30.00
2022-12-07T14:06:11.863Z,30.50
2022-12-07T14:07:26.495Z,31.50
2022-12-07T14:08:31.332Z,31.20
2022-12-07T14:09:34.363Z,31.50
2022-12-07T14:10:41.742Z,30.70
2022-12-07T14:11:44.513Z,32.30
2022-12-07T14:12:47.746Z,32.00
2022-12-07T14:13:54.489Z,35.50
2022-12-07T14:14:58.808Z,36.10
2022-12-07T14:16:04.437Z,38.90
2022-12-07T14:17:13.497Z,38.60
2022-12-07T14:18:28.886Z,42.70
2022-12-07T14:19:49.580Z,37.20
2022-12-07T14:20:52.447Z,44.70
2022-12-07T14:22:08.337Z,54.50
2022-12-07T14:23:25.119Z,44.30
2022-12-07T14:24:27.913Z,54.90
2022-12-07T14:25:32.519Z,61.40
2022-12-07T14:26:36.019Z,85.70
2022-12-07T14:27:38.196Z,88.36
2022-12-07T14:28:40.668Z,85.60
2022-12-07T14:29:43.577Z,101.90
2022-12-07T14:30:46.362Z,106.90
2022-12-07T14:31:48.727Z,105.40
2022-12-07T14:32:56.664Z,128.20
2022-12-07T14:34:00.563Z,129.30
2022-12-07T14:35:11.581Z,115.80
2022-12-07T14:36:14.406Z,108.40
2022-12-07T14:37:17.281Z,92.40
2022-12-07T14:38:20.329Z,77.20
2022-12-07T14:39:22.521Z,66.80
2022-12-07T14:41:39.139Z,64.10
2022-12-07T14:42:42.392Z,54.60
2022-12-07T14:43:59.969Z,42.20
2022-12-07T14:44:50.497Z,40.90
2022-12-07T14:45:53.751Z,39.30
2022-12-07T14:53:37.378Z,33.90
2022-12-07T14:54:40.402Z,33.70
2022-12-07T14:55:43.076Z,35.36
2022-12-07T14:56:45.888Z,37.20
2022-12-07T14:57:48.620Z,35.30
2022-12-07T14:58:51.416Z,39.20
2022-12-07T14:59:53.738Z,47.50
2022-12-07T15:00:56.417Z,43.10
2022-12-07T15:01:59.094Z,42.40
2022-12-07T15:03:01.174Z,46.20
2022-12-07T15:04:05.512Z,41.67
2022-12-07T15:05:14.148Z,41.60
2022-12-07T15:07:30.600Z,37.50
2022-12-07T15:08:33.117Z,35.60
2022-12-07T15:09:35.195Z,35.50
2022-12-07T15:10:37.614Z,35.78
2022-12-07T15:11:44.361Z,34.90
2022-12-07T15:12:44.371Z,34.40
2022-12-07T15:13:46.536Z,33.30
2022-12-07T15:14:48.620Z,33.30
2022-12-07T15:15:52.789Z,33.22
2022-12-07T15:17:15.798Z,31.10
2022-12-07T15:17:59.644Z,32.20
2022-12-07T15:19:29.223Z,29.30
2022-12-07T15:20:08.488Z,26.40
2022-12-07T15:21:15.220Z,29.60
2022-12-07T15:22:17.416Z,30.10
2022-12-07T15:23:19.488Z,27.40
2022-12-07T15:24:21.919Z,29.20
2022-12-07T15:25:24.196Z,26.30
2022-12-07T15:26:26.820Z,28.50
2022-12-07T15:27:28.975Z,27.10
2022-12-07T15:28:31.611Z,27.90
2022-12-07T15:29:33.702Z,26.50
2022-12-07T15:30:38.112Z,26.70
2022-12-07T15:31:58.819Z,26.20
2022-12-07T15:32:51.238Z,27.60
2022-12-07T15:33:53.384Z,27.40
2022-12-07T15:34:55.498Z,26.67
2022-12-07T15:36:00.475Z,25.78
2022-12-07T15:37:03.239Z,25.40
2022-12-07T15:38:05.309Z,26.90
2022-12-07T15:39:14.434Z,25.00
2022-12-07T15:40:14.732Z,25.10
2022-12-07T15:41:17.774Z,25.40
2022-12-07T15:42:24.612Z,25.70
2022-12-07T15:43:27.567Z,24.90
2022-12-07T15:44:31.247Z,25.60
2022-12-07T15:45:33.691Z,25.30
2022-12-07T15:46:39.927Z,24.70
2022-12-07T15:48:19.886Z,23.30
2022-12-07T15:48:48.069Z,22.80
2022-12-07T15:49:50.177Z,24.70
2022-12-07T15:50:53.677Z,22.55
2022-12-07T15:51:55.699Z,25.00
2022-12-07T15:52:58.197Z,24.30
2022-12-07T15:54:00.782Z,25.50
2022-12-07T15:55:03.723Z,24.30
2022-12-07T15:56:08.186Z,24.60
2022-12-07T15:57:10.339Z,24.00
2022-12-07T15:58:12.422Z,22.10
2022-12-07T15:59:16.600Z,23.90
2022-12-07T16:00:20.171Z,24.20
2022-12-07T16:01:22.361Z,23.80
2022-12-07T16:02:24.950Z,23.10
2022-12-07T16:03:28.089Z,23.64
2022-12-07T16:04:32.893Z,26.40
2022-12-07T16:05:36.511Z,24.40
2022-12-07T16:06:39.047Z,24.70
2022-12-07T16:07:42.137Z,20.80
2022-12-07T16:08:45.784Z,23.90
2022-12-07T16:09:49.925Z,24.10
2022-12-07T16:10:53.328Z,24.10
2022-12-07T16:11:56.532Z,22.30
2022-12-07T16:12:58.687Z,21.90
2022-12-07T16:14:01.309Z,23.70
2022-12-07T16:15:06.173Z,22.30
2022-12-07T16:16:12.980Z,24.30
2022-12-07T16:17:15.290Z,23.80
2022-12-07T16:18:18.030Z,22.50
2022-12-07T16:19:21.179Z,23.10
2022-12-07T16:20:23.770Z,22.10
2022-12-07T16:21:27.058Z,23.40
2022-12-07T16:22:29.121Z,23.80
2022-12-07T16:23:31.391Z,21.80
2022-12-07T16:24:34.996Z,22.50
2022-12-07T16:25:38.396Z,23.20
2022-12-07T16:26:43.713Z,23.00
2022-12-07T16:27:45.736Z,18.30
2022-12-07T16:28:51.553Z,22.40
2022-12-07T16:29:54.145Z,23.10
2022-12-07T16:31:07.120Z,22.80
2022-12-07T16:32:09.525Z,22.70
2022-12-07T16:33:12.021Z,23.40
2022-12-07T16:34:14.653Z,22.50
2022-12-07T16:35:17.782Z,21.73
2022-12-07T16:36:40.360Z,20.90
2022-12-07T16:37:25.129Z,23.00
2022-12-07T16:38:27.411Z,22.30
2022-12-07T16:40:05.354Z,21.20
2022-12-07T16:41:07.852Z,22.00
2022-12-07T16:42:11.882Z,21.27
2022-12-07T16:43:16.792Z,22.30
2022-12-07T16:44:19.890Z,21.30
2022-12-07T16:45:24.118Z,21.90
2022-12-07T16:46:26.280Z,17.50
2022-12-07T16:47:28.552Z,22.50
2022-12-07T16:48:31.153Z,21.00
2022-12-07T16:49:33.366Z,21.90
2022-12-07T16:50:35.990Z,21.40
2022-12-07T16:51:39.008Z,21.30
2022-12-07T16:52:41.681Z,21.64
2022-12-07T16:53:44.155Z,21.60
2022-12-07T16:54:46.642Z,22.80
2022-12-07T16:55:48.749Z,22.20
2022-12-07T16:56:50.945Z,20.00
2022-12-07T16:57:53.036Z,21.50
2022-12-07T16:58:55.250Z,22.70
2022-12-07T16:59:59.297Z,20.10
2022-12-07T17:01:11.016Z,22.30
2022-12-07T17:02:15.369Z,21.00
2022-12-07T17:03:20.666Z,22.10
2022-12-07T17:04:22.816Z,19.50
2022-12-07T17:05:26.333Z,21.30
2022-12-07T17:06:29.003Z,20.10
2022-12-07T17:07:31.099Z,20.50
2022-12-07T17:08:33.785Z,21.10
2022-12-07T17:09:37.878Z,20.60
2022-12-07T17:10:42.008Z,21.30
2022-12-07T17:11:44.808Z,22.20
2022-12-07T17:12:47.431Z,20.00
2022-12-07T17:13:50.189Z,21.30
2022-12-07T17:14:53.240Z,21.50
2022-12-07T17:16:00.493Z,21.50
2022-12-07T17:17:03.865Z,20.70
2022-12-07T17:18:06.563Z,20.20
2022-12-07T17:19:10.879Z,20.80
2022-12-07T17:20:13.274Z,20.70
2022-12-07T17:21:17.225Z,20.40
2022-12-07T17:22:19.529Z,20.10
2022-12-07T17:23:23.894Z,19.50
2022-12-07T17:24:27.128Z,20.40
2022-12-07T17:25:29.365Z,20.60
2022-12-07T17:26:35.744Z,20.90
2022-12-07T17:27:37.542Z,21.40
2022-12-07T17:28:40.967Z,21.91
2022-12-07T17:29:44.143Z,21.60
2022-12-07T17:30:46.424Z,22.00
2022-12-07T17:31:51.980Z,21.90
2022-12-07T17:32:54.794Z,21.90
2022-12-07T17:33:56.889Z,22.50
2022-12-07T17:35:00.204Z,19.70
2022-12-07T17:36:19.208Z,22.50
2022-12-07T17:37:22.583Z,22.10
2022-12-07T17:38:25.223Z,22.60
2022-12-07T17:39:27.789Z,23.00
2022-12-07T17:40:31.170Z,23.10
2022-12-07T17:41:35.502Z,21.90
2022-12-07T17:42:39.860Z,22.10
2022-12-07T17:43:42.063Z,21.50
2022-12-07T17:44:45.184Z,22.70
2022-12-07T17:45:48.408Z,23.55
2022-12-07T17:46:52.699Z,23.20
2022-12-07T17:47:55.831Z,22.55
2022-12-07T17:49:00.094Z,20.20
2022-12-07T17:50:07.191Z,22.10
2022-12-07T17:51:08.682Z,22.10
2022-12-07T17:52:11.940Z,21.70
2022-12-07T17:53:14.115Z,20.10
2022-12-07T17:54:16.706Z,22.20
2022-12-07T17:55:20.071Z,22.30
2022-12-07T17:56:29.696Z,21.10
2022-12-07T17:57:26.472Z,22.60
2022-12-07T17:58:28.562Z,23.20
2022-12-07T17:59:30.607Z,21.44
2022-12-07T18:00:34.628Z,22.20
2022-12-07T18:01:37.678Z,21.20
2022-12-07T18:02:40.948Z,21.60
2022-12-07T18:03:44.608Z,20.80
2022-12-07T18:04:46.834Z,22.90
2022-12-07T18:05:48.910Z,21.10
2022-12-07T18:06:52.571Z,21.20
2022-12-07T18:07:55.027Z,23.50
2022-12-07T18:08:58.510Z,22.00
2022-12-07T18:10:00.759Z,22.00
2022-12-07T18:11:02.769Z,21.89
2022-12-07T18:12:05.233Z,20.00
2022-12-07T18:13:07.782Z,21.60
2022-12-07T18:14:09.973Z,20.50
2022-12-07T18:15:13.227Z,22.80
2022-12-07T18:17:29.888Z,20.40
